Time;durP1;ratioP1;P1;durP2;ratioP2;P2;SDS_P1;SDS_P2;PMS_P1;PMS_P2;Temp;Humidity;BMP_temperature;BMP_pressure;BME280_temperature;BME280_humidity;BME280_pressure;Samples;Min_cycle;Max_cycle;Signal;HPM_P1;HPM_P2
2023/01/14 00:01:30;;;;;;;7.67;2.60;;;;;;;4.45;90.37;95871.47;4923329;29;20686;-82
2023/01/14 00:03:55;;;;;;;13.93;2.80;;;;;;;4.47;89.49;95879.91;4916558;29;20667;-82
2023/01/14 00:06:23;;;;;;;15.17;2.87;;;;;;;4.42;89.65;95880.22;4919809;29;20193;-81
2023/01/14 00:08:55;;;;;;;7.37;2.20;;;;;;;4.49;89.11;95884.00;4917038;29;20205;-82
2023/01/14 00:11:45;;;;;;;8.83;2.43;;;;;;;4.50;88.84;95889.97;4917924;29;20623;-81
2023/01/14 00:14:06;;;;;;;10.40;2.53;;;;;;;4.40;88.53;95884.63;4940029;29;20653;-81
2023/01/14 00:16:31;;;;;;;9.57;2.03;;;;;;;4.49;88.43;95881.44;4937900;29;20182;-82
2023/01/14 00:18:57;;;;;;;10.67;2.07;;;;;;;4.58;87.27;95879.19;4944565;29;20227;-82
2023/01/14 00:21:22;;;;;;;8.60;2.10;;;;;;;4.49;87.84;95886.59;4925939;29;20218;-81
2023/01/14 00:23:47;;;;;;;6.70;2.03;;;;;;;4.23;88.87;95901.16;4920721;29;20202;-81
2023/01/14 00:26:14;;;;;;;7.57;2.60;;;;;;;4.29;88.17;95899.13;4925224;29;20182;-81
2023/01/14 00:28:41;;;;;;;5.80;2.30;;;;;;;4.41;87.87;95888.84;4933347;29;20209;-80
2023/01/14 00:31:11;;;;;;;10.77;1.93;;;;;;;4.37;87.74;95891.72;4949304;28;20598;-82
2023/01/14 00:33:37;;;;;;;14.50;2.10;;;;;;;4.41;86.95;95896.56;4916735;29;20281;-82
2023/01/14 00:36:05;;;;;;;6.03;1.50;;;;;;;4.34;88.18;95887.63;4945353;29;20314;-80
2023/01/14 00:38:30;;;;;;;13.07;2.27;;;;;;;4.25;88.35;95877.94;4918345;29;20582;-82
2023/01/14 00:41:09;;;;;;;10.83;2.00;;;;;;;4.22;88.27;95873.81;4938568;29;20200;-82
2023/01/14 00:43:37;;;;;;;8.40;2.30;;;;;;;4.43;87.35;95876.72;4929861;29;20326;-81
2023/01/14 00:46:05;;;;;;;9.47;2.00;;;;;;;4.38;87.66;95881.34;4916572;29;20197;-83
2023/01/14 00:48:31;;;;;;;8.20;2.30;;;;;;;4.29;87.62;95888.84;4927808;29;20214;-80
2023/01/14 00:50:56;;;;;;;11.70;3.00;;;;;;;4.21;88.68;95892.72;4943636;29;20200;-81
2023/01/14 00:53:21;;;;;;;8.40;2.20;;;;;;;4.25;87.80;95880.50;4932107;29;20206;-81
2023/01/14 00:55:46;;;;;;;12.00;2.57;;;;;;;4.32;86.91;95889.44;4920479;29;20639;-82
2023/01/14 00:58:12;;;;;;;7.00;2.23;;;;;;;4.40;87.21;95897.47;4925618;29;20193;-81
2023/01/14 01:00:37;;;;;;;12.40;4.63;;;;;;;4.35;86.94;95893.59;4929301;29;20257;-81
2023/01/14 01:03:02;;;;;;;8.17;2.13;;;;;;;4.37;86.62;95889.97;4932146;29;20234;-80
2023/01/14 01:05:28;;;;;;;13.80;2.60;;;;;;;4.36;87.00;95887.50;4928469;29;20205;-80
2023/01/14 01:07:53;;;;;;;13.13;2.50;;;;;;;4.38;87.16;95890.81;4925601;29;20204;-80
2023/01/14 01:10:18;;;;;;;9.83;2.70;;;;;;;4.36;87.05;95890.09;4924085;29;20222;-81
2023/01/14 01:12:43;;;;;;;6.63;2.70;;;;;;;4.08;88.99;95894.47;4945078;29;20723;-79
2023/01/14 01:15:09;;;;;;;9.10;2.80;;;;;;;4.01;89.27;95894.97;4939983;29;20205;-80
2023/01/14 01:17:35;;;;;;;14.30;2.20;;;;;;;4.18;88.62;95894.69;4928078;29;20219;-81
2023/01/14 01:20:00;;;;;;;6.77;1.70;;;;;;;4.11;89.29;95891.69;4916462;29;20300;-80
2023/01/14 01:22:25;;;;;;;9.90;2.37;;;;;;;4.10;88.56;95891.78;4908729;29;20212;-80
2023/01/14 01:24:51;;;;;;;14.53;2.37;;;;;;;4.25;87.52;95898.50;4932393;29;20225;-80
2023/01/14 01:27:16;;;;;;;7.27;2.67;;;;;;;4.18;87.68;95892.13;4942848;29;20200;-80
2023/01/14 01:29:41;;;;;;;12.57;2.00;;;;;;;4.21;86.98;95897.06;4918662;29;20284;-80
2023/01/14 01:32:07;;;;;;;14.33;2.30;;;;;;;4.21;87.04;95908.16;4918415;29;20190;-80
2023/01/14 01:34:32;;;;;;;8.40;2.57;;;;;;;4.14;87.60;95908.66;4922447;29;20651;-82
2023/01/14 01:36:57;;;;;;;13.77;2.60;;;;;;;4.20;87.06;95903.94;4933922;29;20202;-81
2023/01/14 01:39:23;;;;;;;9.13;2.30;;;;;;;4.17;87.45;95903.31;4920534;29;20218;-80
2023/01/14 01:41:48;;;;;;;11.30;2.60;;;;;;;4.21;87.61;95902.19;4923274;29;20210;-80
2023/01/14 01:44:13;;;;;;;10.37;1.97;;;;;;;4.28;87.49;95900.06;4944584;29;20212;-80
2023/01/14 01:46:40;;;;;;;7.77;1.73;;;;;;;4.42;86.21;95905.13;4945589;29;20202;-80
2023/01/14 01:49:27;;;;;;;10.60;1.93;;;;;;;4.53;85.65;95907.78;4921952;29;20218;-82
2023/01/14 01:51:56;;;;;;;10.23;1.93;;;;;;;4.49;85.28;95902.00;4944491;29;20320;-80
2023/01/14 01:54:28;;;;;;;9.67;2.17;;;;;;;4.39;85.63;95906.13;4938700;29;20629;-80
2023/01/14 01:56:53;;;;;;;9.83;2.40;;;;;;;4.31;86.32;95912.69;4934687;29;20972;-80
2023/01/14 01:59:22;;;;;;;12.27;2.50;;;;;;;4.37;86.17;95912.31;4940524;29;20210;-80
2023/01/14 02:01:48;;;;;;;11.10;2.20;;;;;;;4.40;85.84;95917.22;4946230;29;20209;-80
2023/01/14 02:04:14;;;;;;;14.03;2.87;;;;;;;4.46;85.30;95907.38;4932182;29;20262;-81
2023/01/14 02:06:39;;;;;;;14.43;2.83;;;;;;;4.37;84.95;95907.97;4939854;29;20194;-79
2023/01/14 02:09:05;;;;;;;10.30;2.17;;;;;;;4.25;85.41;95899.34;4915837;29;20245;-81
2023/01/14 02:11:40;;;;;;;14.40;2.20;;;;;;;4.41;84.14;95903.44;4931696;29;20219;-79
2023/01/14 02:14:27;;;;;;;12.43;2.50;;;;;;;4.39;84.27;95903.56;4924359;29;20218;-79
2023/01/14 02:16:55;;;;;;;6.63;2.10;;;;;;;4.29;84.50;95904.25;4942085;29;20190;-79
2023/01/14 02:19:39;;;;;;;10.67;2.43;;;;;;;4.26;84.85;95900.16;4924389;29;20212;-80
2023/01/14 02:22:07;;;;;;;10.37;2.33;;;;;;;4.08;85.34;95909.88;4926737;29;20205;-81
2023/01/14 02:24:50;;;;;;;11.27;2.23;;;;;;;4.17;85.08;95911.88;4925858;29;20308;-84
2023/01/14 02:27:40;;;;;;;15.53;2.50;;;;;;;4.00;85.71;95904.41;4946005;29;20249;-81
2023/01/14 02:30:07;;;;;;;8.13;1.80;;;;;;;4.10;85.52;95909.78;4915679;29;20617;-83
2023/01/14 02:32:39;;;;;;;16.37;2.10;;;;;;;4.10;85.82;95920.88;4922483;29;20194;-83
2023/01/14 02:35:28;;;;;;;8.87;2.07;;;;;;;4.23;84.45;95919.16;4939792;29;20277;-81
2023/01/14 02:38:22;;;;;;;14.17;2.53;;;;;;;4.30;84.18;95921.34;4937418;29;20189;-81
2023/01/14 02:41:08;;;;;;;9.93;2.10;;;;;;;4.26;84.02;95915.56;4938223;29;20186;-81
2023/01/14 02:44:07;;;;;;;8.93;1.70;;;;;;;4.08;85.07;95909.88;4942454;29;20239;-82
2023/01/14 02:46:34;;;;;;;6.93;1.77;;;;;;;4.11;84.60;95901.16;4940960;29;20223;-82
2023/01/14 02:49:02;;;;;;;11.57;2.47;;;;;;;4.04;84.88;95915.31;4924101;29;20606;-81
2023/01/14 02:51:28;;;;;;;9.87;2.13;;;;;;;4.09;84.69;95914.09;4927400;29;20185;-82
2023/01/14 02:53:53;;;;;;;12.73;1.90;;;;;;;4.15;84.62;95913.72;4930548;29;20304;-81
2023/01/14 02:56:18;;;;;;;4.93;2.00;;;;;;;4.20;84.23;95908.25;4930490;29;20189;-82
2023/01/14 02:59:15;;;;;;;8.33;1.70;;;;;;;4.17;83.97;95914.44;4939927;29;20227;-82
2023/01/14 03:01:54;;;;;;;13.30;2.47;;;;;;;4.04;84.62;95925.59;4926406;29;20582;-82
2023/01/14 03:04:37;;;;;;;13.90;2.63;;;;;;;4.04;84.81;95920.44;4937733;29;20282;-82
2023/01/14 03:07:23;;;;;;;7.90;1.80;;;;;;;3.98;84.98;95914.81;4924738;29;20238;-82
2023/01/14 03:10:00;;;;;;;14.23;1.93;;;;;;;4.11;83.94;95908.84;4941092;29;20202;-81
2023/01/14 03:12:43;;;;;;;9.93;1.70;;;;;;;4.14;84.35;95911.22;4915749;29;20191;-81
2023/01/14 03:15:24;;;;;;;6.80;1.87;;;;;;;4.09;84.51;95903.00;4929751;29;20182;-83
2023/01/14 03:17:56;;;;;;;7.03;1.90;;;;;;;4.19;84.00;95897.16;4924595;29;20185;-81
2023/01/14 03:20:31;;;;;;;7.23;3.10;;;;;;;4.19;84.70;95886.06;4938476;29;20202;-81
2023/01/14 03:23:00;;;;;;;6.03;1.50;;;;;;;4.12;84.32;95879.66;4920051;29;20216;-81
2023/01/14 03:25:27;;;;;;;7.80;1.60;;;;;;;4.07;84.63;95868.88;4925662;29;20203;-81
2023/01/14 03:27:53;;;;;;;9.60;1.73;;;;;;;4.17;83.97;95857.88;4930830;29;20277;-81
2023/01/14 03:30:22;;;;;;;6.47;1.33;;;;;;;4.09;83.83;95855.00;4932208;29;20334;-81
2023/01/14 03:32:51;;;;;;;7.40;1.63;;;;;;;3.96;85.19;95862.66;4925929;29;20197;-82
2023/01/14 03:35:27;;;;;;;10.73;1.80;;;;;;;4.00;84.78;95863.31;4915402;29;20196;-82
2023/01/14 03:38:16;;;;;;;8.90;1.67;;;;;;;3.85;85.67;95851.44;4943252;29;20278;-82
2023/01/14 03:40:42;;;;;;;11.07;2.13;;;;;;;3.85;85.57;95852.25;4926572;29;20198;-83
2023/01/14 03:43:18;;;;;;;7.97;1.77;;;;;;;3.83;86.31;95840.44;4928460;29;20209;-83
2023/01/14 03:45:45;;;;;;;11.03;1.90;;;;;;;3.87;85.51;95836.75;4906040;29;20193;-83
2023/01/14 03:48:10;;;;;;;6.30;1.57;;;;;;;3.75;85.40;95837.53;4942787;29;20205;-82
2023/01/14 03:51:02;;;;;;;7.30;1.80;;;;;;;3.74;86.09;95839.28;4927315;29;20670;-84
2023/01/14 03:53:43;;;;;;;7.03;1.70;;;;;;;3.61;86.30;95841.81;4920235;29;20241;-82
2023/01/14 03:56:35;;;;;;;7.83;1.50;;;;;;;3.68;85.61;95837.94;4928471;29;20193;-81
2023/01/14 03:59:05;;;;;;;3.90;1.40;;;;;;;3.67;85.80;95831.16;4933047;29;20205;-81
2023/01/14 04:01:37;;;;;;;7.30;1.50;;;;;;;3.62;86.45;95830.66;4925681;29;20206;-82
2023/01/14 04:04:02;;;;;;;8.40;1.73;;;;;;;3.70;86.33;95830.94;4939743;29;20207;-82
2023/01/14 04:06:28;;;;;;;4.57;1.47;;;;;;;3.73;85.93;95824.00;4943023;29;20195;-81
2023/01/14 04:08:53;;;;;;;6.07;1.40;;;;;;;3.68;86.47;95812.25;4937946;29;20237;-81
2023/01/14 04:11:19;;;;;;;7.97;1.63;;;;;;;3.72;85.96;95818.03;4933007;29;20193;-83
2023/01/14 04:16:28;;;;;;;5.33;1.77;;;;;;;3.74;86.36;95812.78;4938803;29;20706;-82
2023/01/14 04:18:53;;;;;;;7.77;1.43;;;;;;;3.70;86.17;95809.56;4944576;29;20210;-81
2023/01/14 04:21:19;;;;;;;8.60;1.93;;;;;;;3.66;86.80;95801.25;4932463;29;20185;-81
2023/01/14 04:23:44;;;;;;;7.30;1.70;;;;;;;3.63;86.74;95806.59;4929803;29;20695;-81
2023/01/14 04:26:09;;;;;;;8.23;1.60;;;;;;;3.56;87.48;95813.06;4925367;29;20198;-82
2023/01/14 04:28:34;;;;;;;6.30;1.83;;;;;;;3.36;89.32;95811.75;4926578;29;20243;-82
2023/01/14 04:31:00;;;;;;;10.23;1.77;;;;;;;3.51;88.75;95819.38;4938690;29;20216;-81
2023/01/14 04:33:25;;;;;;;11.73;1.90;;;;;;;3.42;89.88;95807.97;4931582;29;20646;-81
2023/01/14 04:35:51;;;;;;;8.00;2.00;;;;;;;3.47;89.47;95816.22;4920429;29;20194;-82
2023/01/14 04:38:17;;;;;;;6.47;2.10;;;;;;;3.50;89.16;95804.91;4936621;29;20201;-81
2023/01/14 04:40:42;;;;;;;8.17;1.50;;;;;;;3.42;89.83;95800.25;4930841;29;20194;-81
2023/01/14 04:43:08;;;;;;;7.40;2.00;;;;;;;3.46;90.40;95796.59;4929965;29;20308;-80
2023/01/14 04:45:35;;;;;;;10.30;1.90;;;;;;;3.48;90.15;95793.91;4920865;29;20663;-80
2023/01/14 04:48:00;;;;;;;5.57;1.43;;;;;;;3.46;90.17;95795.78;4931996;29;20218;-81
2023/01/14 04:50:32;;;;;;;8.53;1.83;;;;;;;3.39;90.62;95791.03;4942007;29;20697;-82
2023/01/14 04:53:04;;;;;;;6.73;2.10;;;;;;;3.48;90.63;95786.22;4927756;29;20281;-80
2023/01/14 04:55:30;;;;;;;11.47;1.80;;;;;;;3.40;90.12;95786.72;4943067;29;20534;-80
2023/01/14 04:57:55;;;;;;;6.07;1.40;;;;;;;3.42;90.47;95784.84;4943411;29;20207;-81
2023/01/14 05:00:20;;;;;;;7.20;1.40;;;;;;;3.35;90.32;95788.72;4923705;29;20220;-80
2023/01/14 05:02:45;;;;;;;6.87;1.70;;;;;;;3.24;91.35;95794.56;4935728;29;20218;-79
2023/01/14 05:05:11;;;;;;;6.63;1.47;;;;;;;3.34;90.93;95797.34;4946600;29;20199;-80
2023/01/14 05:07:36;;;;;;;9.40;1.50;;;;;;;3.23;91.38;95797.22;4953263;29;20222;-82
2023/01/14 05:10:02;;;;;;;6.57;1.73;;;;;;;3.13;91.92;95787.53;4926037;29;20239;-81
2023/01/14 05:12:27;;;;;;;7.97;1.40;;;;;;;3.27;91.31;95775.56;4942310;28;20194;-83
2023/01/14 05:14:52;;;;;;;11.57;1.67;;;;;;;3.25;91.44;95780.78;4966816;28;20278;-82
2023/01/14 05:17:18;;;;;;;10.40;2.00;;;;;;;3.18;91.58;95777.00;4952533;28;20238;-83
2023/01/14 05:19:43;;;;;;;7.67;1.90;;;;;;;3.10;91.91;95780.03;4928279;28;20240;-82
2023/01/14 05:22:08;;;;;;;4.93;1.60;;;;;;;3.11;92.08;95775.72;4927434;29;20249;-80
2023/01/14 05:24:33;;;;;;;6.97;1.70;;;;;;;3.15;92.59;95782.31;4929900;29;20199;-81
2023/01/14 05:26:59;;;;;;;7.70;1.63;;;;;;;3.19;91.84;95773.50;4945660;29;20241;-80
2023/01/14 05:29:24;;;;;;;8.70;1.80;;;;;;;3.19;92.78;95770.94;4942692;29;20620;-80
2023/01/14 05:31:49;;;;;;;10.93;2.63;;;;;;;3.11;92.62;95771.41;4942147;29;20186;-80
2023/01/14 05:34:17;;;;;;;7.13;1.73;;;;;;;3.17;92.50;95765.06;4924926;29;20214;-81
2023/01/14 05:36:42;;;;;;;9.67;2.27;;;;;;;3.19;92.48;95760.66;4945540;29;20182;-80
2023/01/14 05:39:07;;;;;;;6.90;1.57;;;;;;;3.17;92.83;95759.09;4921717;29;20264;-80
2023/01/14 05:41:33;;;;;;;6.50;1.57;;;;;;;3.09;93.03;95757.88;4925673;29;20206;-80
2023/01/14 05:46:45;;;;;;;7.50;2.07;;;;;;;2.78;95.79;95753.81;4937456;29;20735;-80
2023/01/14 05:49:10;;;;;;;7.27;1.97;;;;;;;2.78;95.73;95747.88;4922799;29;20707;-80
2023/01/14 05:51:35;;;;;;;5.60;1.53;;;;;;;2.65;96.40;95744.41;4916496;29;20186;-80
2023/01/14 05:54:00;;;;;;;6.87;1.80;;;;;;;2.67;97.24;95751.09;4925112;29;20198;-80
2023/01/14 05:56:26;;;;;;;4.97;1.73;;;;;;;2.71;96.99;95746.59;4936132;29;20205;-79
2023/01/14 05:58:51;;;;;;;7.93;2.30;;;;;;;2.71;97.51;95749.16;4925674;29;20257;-80
2023/01/14 06:06:48;;;;;;;7.07;1.80;;;;;;;2.64;97.69;95730.75;4924341;29;20196;-82
2023/01/14 06:09:15;;;;;;;10.10;1.80;;;;;;;2.64;97.30;95729.94;4926833;29;20233;-82
2023/01/14 06:11:42;;;;;;;6.90;2.30;;;;;;;2.59;98.68;95726.84;4915863;29;20185;-79
2023/01/14 06:14:07;;;;;;;9.03;2.23;;;;;;;2.63;98.75;95728.31;4928330;29;20233;-81
2023/01/14 06:16:40;;;;;;;5.70;1.80;;;;;;;2.61;98.73;95730.97;4925378;29;20674;-83
2023/01/14 06:19:09;;;;;;;7.27;1.90;;;;;;;2.62;99.18;95724.09;4924132;29;20214;-82
2023/01/14 06:21:35;;;;;;;11.03;1.97;;;;;;;2.63;99.24;95729.13;4920998;29;20768;-83
2023/01/14 06:24:00;;;;;;;5.17;1.70;;;;;;;2.63;98.54;95728.31;4926162;29;20192;-82
2023/01/14 06:26:27;;;;;;;9.47;2.37;;;;;;;2.64;98.88;95725.63;4946166;29;20186;-81
2023/01/14 06:29:19;;;;;;;4.77;1.63;;;;;;;2.70;98.41;95711.63;4937308;29;20231;-82
2023/01/14 06:31:44;;;;;;;7.00;1.80;;;;;;;2.70;98.68;95719.31;4918050;29;20543;-80
2023/01/14 06:34:10;;;;;;;8.07;2.10;;;;;;;2.64;99.30;95714.56;4917093;29;20205;-80
2023/01/14 06:36:37;;;;;;;10.70;2.07;;;;;;;2.63;98.83;95711.16;4925817;29;20229;-82
2023/01/14 06:39:02;;;;;;;7.73;1.80;;;;;;;2.63;98.81;95708.59;4933350;29;20209;-81
2023/01/14 06:41:28;;;;;;;7.50;1.87;;;;;;;2.54;100.00;95699.75;4924519;29;20248;-80
2023/01/14 06:43:53;;;;;;;11.90;2.03;;;;;;;2.68;100.00;95698.06;4927857;29;20205;-80
2023/01/14 06:46:18;;;;;;;7.93;1.73;;;;;;;2.89;99.10;95694.16;4940271;29;20318;-80
2023/01/14 06:48:44;;;;;;;5.83;1.70;;;;;;;2.87;97.56;95690.88;4924118;29;20225;-81
2023/01/14 06:51:12;;;;;;;7.63;2.20;;;;;;;2.78;98.72;95697.41;4917014;29;20238;-79
2023/01/14 06:53:38;;;;;;;9.43;2.40;;;;;;;2.81;98.53;95691.25;4947182;29;20252;-80
2023/01/14 06:56:05;;;;;;;8.63;2.77;;;;;;;2.88;98.90;95692.50;4934899;29;20186;-81
2023/01/14 06:58:31;;;;;;;10.30;2.40;;;;;;;2.75;99.74;95691.66;4925924;29;20628;-80
2023/01/14 07:00:57;;;;;;;7.60;2.30;;;;;;;2.90;98.86;95684.72;4918423;29;20202;-81
2023/01/14 07:03:23;;;;;;;7.63;2.20;;;;;;;2.92;98.96;95675.19;4920773;29;20297;-80
2023/01/14 07:05:49;;;;;;;10.70;2.43;;;;;;;2.95;98.52;95680.94;4922859;29;20664;-80
2023/01/14 07:08:14;;;;;;;8.97;2.50;;;;;;;3.02;97.68;95671.94;4924435;29;20277;-81
2023/01/14 07:10:39;;;;;;;5.13;2.10;;;;;;;2.99;97.90;95673.84;4905013;29;20205;-82
2023/01/14 07:13:04;;;;;;;9.57;2.10;;;;;;;3.07;98.01;95664.75;4927825;29;20246;-80
2023/01/14 07:15:30;;;;;;;14.33;2.37;;;;;;;3.10;98.07;95658.63;4915319;29;20219;-80
2023/01/14 07:17:55;;;;;;;9.27;2.10;;;;;;;3.15;98.19;95660.88;4937127;29;20201;-80
2023/01/14 07:20:20;;;;;;;15.27;2.03;;;;;;;3.26;97.61;95650.72;4925859;29;20694;-81
2023/01/14 07:22:46;;;;;;;11.97;1.93;;;;;;;3.27;98.55;95648.09;4927047;29;20213;-82
2023/01/14 07:25:11;;;;;;;6.57;1.97;;;;;;;3.34;98.27;95636.47;4922087;29;20247;-82
2023/01/14 07:27:36;;;;;;;7.80;2.80;;;;;;;3.37;97.75;95645.72;4922942;29;20198;-83
2023/01/14 07:30:03;;;;;;;12.83;2.73;;;;;;;3.42;98.62;95635.97;4921359;29;20234;-82
2023/01/14 07:32:28;;;;;;;8.97;2.70;;;;;;;3.57;97.55;95637.50;4926886;29;20285;-83
2023/01/14 07:34:56;;;;;;;13.20;2.20;;;;;;;3.62;97.93;95632.91;4916580;29;20209;-84
2023/01/14 07:37:21;;;;;;;10.70;2.77;;;;;;;3.65;97.69;95627.53;4905047;29;20194;-82
2023/01/14 07:39:46;;;;;;;6.67;2.40;;;;;;;3.56;98.25;95628.16;4925272;29;20546;-81
2023/01/14 07:42:12;;;;;;;11.70;2.13;;;;;;;3.60;98.25;95628.78;4925355;29;20247;-82
2023/01/14 07:44:37;;;;;;;7.83;2.20;;;;;;;3.68;97.55;95619.63;4945809;29;20277;-82
2023/01/14 07:47:02;;;;;;;10.77;3.37;;;;;;;3.78;97.59;95616.44;4926943;29;20208;-83
2023/01/14 07:49:28;;;;;;;7.63;2.23;;;;;;;3.82;96.77;95621.28;4937273;29;20213;-83
2023/01/14 07:51:56;;;;;;;9.47;2.00;;;;;;;3.89;96.25;95614.78;4934112;29;20186;-84
2023/01/14 07:54:21;;;;;;;7.43;2.00;;;;;;;3.85;97.27;95612.53;4929409;29;20203;-83
2023/01/14 07:56:50;;;;;;;7.87;2.53;;;;;;;3.91;96.98;95601.84;4945297;29;20232;-83
2023/01/14 07:59:18;;;;;;;8.33;2.20;;;;;;;3.97;96.45;95603.97;4929179;29;20217;-84
2023/01/14 08:01:46;;;;;;;7.37;2.47;;;;;;;4.07;96.38;95594.72;4927389;29;20209;-81
2023/01/14 08:04:12;;;;;;;12.67;2.80;;;;;;;4.14;95.93;95602.78;4930700;29;20245;-83
2023/01/14 08:06:40;;;;;;;7.13;2.43;;;;;;;4.05;96.80;95604.25;4920460;29;20212;-83
2023/01/14 08:09:05;;;;;;;10.83;2.30;;;;;;;4.14;95.97;95603.59;4946042;29;20260;-83
2023/01/14 08:11:31;;;;;;;9.77;2.77;;;;;;;4.31;95.28;95610.16;4947766;29;20179;-84
2023/01/14 08:13:56;;;;;;;8.87;2.03;;;;;;;4.32;95.72;95611.78;4917807;29;20186;-85
2023/01/14 08:16:21;;;;;;;11.23;2.47;;;;;;;4.37;95.24;95606.34;4927840;29;20215;-84
2023/01/14 08:18:54;;;;;;;12.90;2.10;;;;;;;4.45;95.25;95593.75;4934926;29;20206;-85
2023/01/14 08:21:20;;;;;;;6.47;2.60;;;;;;;4.50;95.66;95607.09;4920102;29;20190;-83
2023/01/14 08:23:45;;;;;;;10.00;3.40;;;;;;;4.46;96.35;95597.97;4932691;29;20192;-82
2023/01/14 08:26:12;;;;;;;11.20;2.47;;;;;;;4.48;96.77;95603.81;4935576;29;20200;-82
2023/01/14 08:28:40;;;;;;;9.80;2.47;;;;;;;4.62;96.32;95593.38;4936215;29;20251;-82
2023/01/14 08:31:11;;;;;;;6.37;1.47;;;;;;;4.78;96.26;95596.50;4916543;29;20206;-83
2023/01/14 08:33:37;;;;;;;8.40;1.60;;;;;;;4.81;95.44;95598.81;4926798;29;20185;-82
2023/01/14 08:36:08;;;;;;;5.83;1.60;;;;;;;4.96;95.11;95606.38;4914924;29;20194;-85
2023/01/14 08:38:35;;;;;;;5.33;1.50;;;;;;;4.95;95.23;95609.88;4906966;29;20213;-83
2023/01/14 08:41:05;;;;;;;10.70;4.60;;;;;;;5.12;93.83;95606.88;4909845;29;20191;-83
2023/01/14 08:43:30;;;;;;;12.73;7.03;;;;;;;5.28;93.33;95602.22;4919470;29;20212;-84
2023/01/14 08:45:59;;;;;;;9.10;3.27;;;;;;;5.31;93.69;95599.44;4927214;29;20669;-82
2023/01/14 08:48:24;;;;;;;13.43;2.60;;;;;;;5.54;92.67;95599.47;4941143;29;20225;-83
2023/01/14 08:50:49;;;;;;;11.67;2.60;;;;;;;5.58;92.53;95606.03;4919891;29;20186;-83
2023/01/14 08:53:14;;;;;;;9.93;2.17;;;;;;;5.42;92.82;95598.66;4930686;29;20194;-84
2023/01/14 08:55:40;;;;;;;7.13;1.93;;;;;;;5.46;92.85;95584.59;4928479;29;20178;-84
2023/01/14 08:58:06;;;;;;;10.80;1.93;;;;;;;5.65;92.26;95577.13;4916394;29;20229;-83
2023/01/14 09:00:32;;;;;;;7.50;2.10;;;;;;;5.63;92.14;95565.28;4921500;29;20190;-84
2023/01/14 09:02:57;;;;;;;4.87;1.50;;;;;;;5.84;91.14;95573.16;4945799;28;20213;-84
2023/01/14 09:05:22;;;;;;;9.83;2.00;;;;;;;5.59;92.49;95567.28;4931797;29;20229;-84
2023/01/14 09:18:43;;;;;;;6.17;1.70;;;;;;;6.11;90.57;95553.00;4939000;29;20221;-82
2023/01/14 09:21:09;;;;;;;5.87;1.57;;;;;;;6.30;90.19;95556.69;4931156;29;20194;-83
2023/01/14 09:23:34;;;;;;;4.30;1.70;;;;;;;6.34;90.02;95548.56;4918793;29;20310;-81
2023/01/14 09:25:59;;;;;;;12.30;2.03;;;;;;;6.44;89.66;95553.81;4928202;29;20224;-82
2023/01/14 09:28:25;;;;;;;8.07;2.00;;;;;;;6.40;89.67;95555.84;4929407;29;20206;-83
2023/01/14 09:30:50;;;;;;;8.67;2.00;;;;;;;6.41;89.79;95547.16;4927813;29;20199;-82
2023/01/14 09:33:15;;;;;;;5.47;1.97;;;;;;;6.50;89.53;95546.41;4946093;29;20611;-82
2023/01/14 09:35:41;;;;;;;5.47;2.10;;;;;;;6.60;88.47;95548.25;4926170;29;20194;-82
2023/01/14 09:38:06;;;;;;;5.03;1.70;;;;;;;6.60;89.38;95543.09;4928787;29;20190;-82
2023/01/14 09:40:38;;;;;;;5.27;1.67;;;;;;;6.61;89.20;95540.41;4945591;29;20246;-83
2023/01/14 09:43:05;;;;;;;8.03;2.40;;;;;;;6.68;89.17;95548.47;4928418;29;20205;-82
2023/01/14 09:45:32;;;;;;;8.60;2.83;;;;;;;6.71;88.73;95554.19;4912085;29;20220;-82
2023/01/14 09:48:02;;;;;;;6.83;2.40;;;;;;;6.62;89.88;95549.78;4945814;29;20203;-84
2023/01/14 09:50:49;;;;;;;4.93;1.70;;;;;;;6.60;88.60;95556.81;4920662;29;20218;-83
2023/01/14 09:53:39;;;;;;;6.10;2.00;;;;;;;6.74;88.78;95563.47;4943089;29;20197;-83
2023/01/14 09:56:18;;;;;;;6.77;2.00;;;;;;;6.58;88.89;95556.13;4940021;29;20189;-83
2023/01/14 09:58:54;;;;;;;7.77;2.10;;;;;;;6.66;88.26;95558.09;4944883;29;20690;-84
2023/01/14 10:01:28;;;;;;;12.83;2.97;;;;;;;6.50;89.35;95545.59;4929694;29;20276;-85
2023/01/14 10:03:59;;;;;;;6.30;2.57;;;;;;;6.86;88.39;95510.03;4934082;29;20241;-83
2023/01/14 10:06:24;;;;;;;6.60;2.57;;;;;;;6.78;86.88;95485.66;4929794;29;20314;-83
2023/01/14 10:09:04;;;;;;;5.17;2.63;;;;;;;7.10;87.20;95471.84;4936589;29;20325;-85
2023/01/14 10:11:32;;;;;;;4.43;2.23;;;;;;;7.19;86.72;95459.94;4934321;29;20193;-83
2023/01/14 10:14:02;;;;;;;11.87;2.90;;;;;;;7.16;86.37;95453.28;4923674;29;20198;-83
2023/01/14 10:16:35;;;;;;;6.40;2.33;;;;;;;6.90;87.47;95459.78;4920533;29;20190;-83
2023/01/14 10:19:04;;;;;;;3.63;1.60;;;;;;;6.98;86.88;95459.94;4941987;29;20229;-83
2023/01/14 10:21:44;;;;;;;12.23;2.13;;;;;;;7.02;86.89;95461.34;4936285;29;20194;-84
2023/01/14 10:24:16;;;;;;;5.67;1.63;;;;;;;7.07;87.27;95452.28;4926078;29;20206;-83
2023/01/14 10:26:43;;;;;;;7.27;2.73;;;;;;;7.09;87.01;95447.81;4946427;29;20215;-83
2023/01/14 10:29:14;;;;;;;9.57;6.13;;;;;;;7.12;86.69;95440.72;4924469;29;20225;-84
2023/01/14 10:31:41;;;;;;;7.33;5.07;;;;;;;7.12;86.18;95433.81;4910093;29;20202;-83
2023/01/14 10:34:09;;;;;;;8.80;3.37;;;;;;;6.91;87.46;95428.69;4948010;29;20613;-83
2023/01/14 10:36:34;;;;;;;4.07;3.67;;;;;;;7.04;87.94;95437.03;4933800;29;20217;-83
2023/01/14 10:39:03;;;;;;;5.43;3.83;;;;;;;6.82;88.53;95421.72;4905242;29;20567;-83
2023/01/14 10:44:21;;;;;;;20.10;11.53;;;;;;;7.18;86.51;95417.81;4929615;29;20213;-83
2023/01/14 10:46:46;;;;;;;5.10;2.53;;;;;;;7.18;86.89;95419.56;4918359;29;20948;-83
2023/01/14 10:49:17;;;;;;;5.77;1.47;;;;;;;7.15;87.06;95406.91;4941527;29;20209;-83
2023/01/14 10:51:50;;;;;;;3.93;1.83;;;;;;;7.20;86.81;95402.97;4913976;29;20186;-83
2023/01/14 10:54:20;;;;;;;6.07;5.37;;;;;;;7.08;87.36;95383.38;4928025;29;20841;-83
2023/01/14 10:56:49;;;;;;;9.17;8.17;;;;;;;7.05;87.17;95381.84;4922380;29;20312;-83
2023/01/14 10:59:42;;;;;;;12.37;11.33;;;;;;;7.48;85.41;95367.03;4918376;29;20214;-85
2023/01/14 11:02:26;;;;;;;12.93;11.70;;;;;;;7.27;85.97;95369.72;4917431;29;20214;-84
2023/01/14 11:04:52;;;;;;;31.03;28.17;;;;;;;7.35;85.94;95356.97;4942380;29;20190;-83
2023/01/14 11:07:25;;;;;;;32.70;29.90;;;;;;;7.60;84.65;95359.03;4927008;29;20198;-83
2023/01/14 11:09:51;;;;;;;6.17;2.70;;;;;;;7.46;84.94;95359.41;4943378;29;20209;-84
2023/01/14 11:12:27;;;;;;;3.27;1.50;;;;;;;7.50;84.29;95350.44;4943202;29;20210;-84
2023/01/14 11:14:52;;;;;;;4.57;1.57;;;;;;;7.49;84.83;95348.81;4925385;29;20233;-83
2023/01/14 11:17:26;;;;;;;1.63;1.00;;;;;;;7.28;84.26;95346.31;4910122;29;20241;-83
2023/01/14 11:20:23;;;;;;;2.07;0.87;;;;;;;7.50;82.58;95345.28;4943695;29;20207;-85
2023/01/14 11:23:01;;;;;;;2.80;0.90;;;;;;;7.63;82.04;95340.69;4926118;29;20210;-83
2023/01/14 11:25:28;;;;;;;1.53;1.00;;;;;;;7.80;80.95;95343.56;4916904;29;20254;-83
2023/01/14 11:27:53;;;;;;;2.60;1.00;;;;;;;7.89;80.77;95340.16;4943241;29;20213;-84
2023/01/14 11:30:21;;;;;;;1.20;0.70;;;;;;;7.92;80.32;95325.19;4934351;29;20710;-82
2023/01/14 11:32:49;;;;;;;1.73;0.83;;;;;;;7.95;80.46;95329.25;4934332;29;20186;-82
2023/01/14 11:35:20;;;;;;;0.90;0.60;;;;;;;8.07;79.85;95324.75;4924400;29;20222;-83
2023/01/14 11:37:53;;;;;;;1.23;0.80;;;;;;;8.07;79.46;95315.25;4918628;29;20252;-82
2023/01/14 11:41:28;;;;;;;2.53;0.83;;;;;;;8.24;79.44;95311.94;4936012;29;20304;-83
2023/01/14 11:43:10;;;;;;;1.60;0.80;;;;;;;8.03;79.35;95300.13;4925612;29;20233;-82
2023/01/14 11:45:35;;;;;;;0.83;0.70;;;;;;;8.20;78.56;95292.47;4924472;29;20563;-82
2023/01/14 11:48:01;;;;;;;1.77;0.90;;;;;;;8.04;78.56;95292.25;4926642;29;20206;-82
2023/01/14 11:50:28;;;;;;;2.17;1.00;;;;;;;8.31;77.99;95276.00;4944171;29;20214;-82
2023/01/14 11:52:57;;;;;;;1.03;0.93;;;;;;;8.02;77.97;95272.63;4924027;29;20241;-83
2023/01/14 11:55:23;;;;;;;4.33;1.20;;;;;;;8.17;77.35;95264.31;4927399;29;20704;-83
2023/01/14 11:57:48;;;;;;;5.57;2.40;;;;;;;8.36;77.39;95260.06;4930843;29;20222;-83
2023/01/14 12:00:13;;;;;;;5.90;2.53;;;;;;;8.36;77.39;95253.13;4931536;29;20221;-83
2023/01/14 12:02:44;;;;;;;2.93;1.30;;;;;;;8.28;77.52;95246.97;4927817;28;20209;-82
2023/01/14 12:05:16;;;;;;;3.13;1.77;;;;;;;8.24;77.24;95247.28;4941557;29;20190;-84
2023/01/14 12:07:48;;;;;;;4.00;1.90;;;;;;;8.29;77.07;95231.31;4926379;29;20201;-84
2023/01/14 12:10:27;;;;;;;5.37;2.30;;;;;;;8.08;78.31;95230.72;4936244;29;20248;-84
2023/01/14 12:18:50;;;;;;;2.43;2.23;;;;;;;8.01;77.49;95177.91;4945112;28;20225;-83